Time;durP1;ratioP1;P1;durP2;ratioP2;P2;SDS_P1;SDS_P2;PMS_P1;PMS_P2;Temp;Humidity;BMP_temperature;BMP_pressure;BME280_temperature;BME280_humidity;BME280_pressure;Samples;Min_cycle;Max_cycle;Signal;HPM_P1;HPM_P2
2022/01/17 00:01:09;;;;;;;1.88;0.60;;;20.50;46.00;;;;;;4955690;28;20554;-83
2022/01/17 00:03:34;;;;;;;1.15;0.55;;;20.50;46.10;;;;;;4956281;28;20703;-83
2022/01/17 00:06:00;;;;;;;2.15;0.88;;;20.50;46.10;;;;;;4956225;28;20050;-82
2022/01/17 00:08:25;;;;;;;2.00;0.60;;;20.50;46.10;;;;;;4971743;28;20047;-83
2022/01/17 00:10:51;;;;;;;2.13;1.00;;;20.50;46.10;;;;;;4956168;28;20102;-83
2022/01/17 00:13:29;;;;;;;1.83;0.60;;;21.00;46.40;;;;;;4955878;28;20147;-83
2022/01/17 00:16:08;;;;;;;1.95;0.70;;;20.40;46.10;;;;;;4953274;28;20069;-83
2022/01/17 00:21:01;;;;;;;1.65;0.63;;;21.50;46.70;;;;;;4955470;28;20061;-83
2022/01/17 00:23:27;;;;;;;1.65;0.60;;;20.40;46.10;;;;;;4956029;28;20063;-83
2022/01/17 00:25:52;;;;;;;0.95;0.40;;;20.40;46.20;;;;;;4917842;29;20095;-83
2022/01/17 00:28:18;;;;;;;1.00;0.50;;;20.40;46.20;;;;;;4916483;29;20779;-83
2022/01/17 00:30:46;;;;;;;1.67;0.63;;;20.30;46.10;;;;;;4916638;29;20151;-83
2022/01/17 00:33:18;;;;;;;1.20;0.70;;;20.30;46.20;;;;;;4949448;29;20135;-83
2022/01/17 00:35:44;;;;;;;1.35;0.60;;;20.30;46.20;;;;;;4948980;29;20067;-83
2022/01/17 00:38:12;;;;;;;1.98;0.50;;;20.30;46.20;;;;;;4917059;29;20480;-83
2022/01/17 00:40:38;;;;;;;1.80;0.57;;;20.30;46.20;;;;;;4941146;28;166019;-83
2022/01/17 00:43:03;;;;;;;1.70;0.80;;;20.30;46.20;;;;;;4955187;28;20537;-83
2022/01/17 00:45:30;;;;;;;2.00;0.65;;;20.30;46.20;;;;;;4955156;28;20051;-83
2022/01/17 00:47:56;;;;;;;1.40;0.55;;;20.30;46.20;;;;;;4955904;28;20057;-82
2022/01/17 00:50:22;;;;;;;1.42;0.50;;;20.20;46.20;;;;;;4955017;28;20441;-83
2022/01/17 00:52:48;;;;;;;1.90;0.65;;;20.20;46.20;;;;;;4955350;28;20056;-83
2022/01/17 00:55:13;;;;;;;1.25;0.50;;;20.20;46.20;;;;;;4955687;28;20153;-83
2022/01/17 00:57:40;;;;;;;1.27;0.52;;;20.20;46.20;;;;;;4954914;28;20066;-83
2022/01/17 01:00:06;;;;;;;1.58;0.50;;;20.20;46.30;;;;;;4955840;28;20047;-83
2022/01/17 01:02:32;;;;;;;1.90;0.50;;;20.20;46.20;;;;;;4955000;28;20042;-83
2022/01/17 01:04:57;;;;;;;1.70;0.50;;;20.20;46.30;;;;;;4955609;28;20043;-83
2022/01/17 01:07:23;;;;;;;1.33;0.60;;;20.20;46.30;;;;;;4971188;28;20577;-83
2022/01/17 01:10:00;;;;;;;1.25;0.50;;;20.20;46.30;;;;;;4970820;28;20805;-82
2022/01/17 01:12:26;;;;;;;1.65;0.60;;;20.20;46.30;;;;;;4952968;28;20530;-82
2022/01/17 01:14:51;;;;;;;1.98;0.63;;;21.00;46.80;;;;;;4955391;28;20047;-83
2022/01/17 01:17:32;;;;;;;2.55;0.82;;;20.10;46.30;;;;;;4954658;28;20483;-83
2022/01/17 01:20:11;;;;;;;0.98;0.50;;;20.10;46.40;;;;;;4970873;28;20039;-83
2022/01/17 01:28:05;;;;;;;1.75;0.50;;;20.10;46.40;;;;;;4954617;28;20499;-83
2022/01/17 01:30:33;;;;;;;2.63;0.73;;;20.10;46.40;;;;;;4954810;28;20047;-83
2022/01/17 01:32:59;;;;;;;1.83;0.68;;;20.00;46.40;;;;;;4953839;28;20057;-82
2022/01/17 01:35:28;;;;;;;1.30;0.50;;;20.00;46.40;;;;;;4954441;28;20518;-83
2022/01/17 01:37:53;;;;;;;1.88;0.63;;;20.00;46.40;;;;;;4954397;28;20069;-83
2022/01/17 01:40:19;;;;;;;1.10;0.50;;;20.00;46.40;;;;;;4953925;28;20422;-82
2022/01/17 01:42:45;;;;;;;1.20;0.50;;;20.00;46.40;;;;;;4951789;28;20055;-83
2022/01/17 01:45:13;;;;;;;2.33;0.60;;;20.00;46.40;;;;;;4953821;28;20049;-83
2022/01/17 01:47:38;;;;;;;1.70;0.63;;;20.00;46.40;;;;;;4953926;28;20062;-83
2022/01/17 01:50:04;;;;;;;2.05;0.45;;;20.00;46.50;;;;;;4951975;28;20063;-83
2022/01/17 01:52:30;;;;;;;1.15;0.40;;;20.00;46.40;;;;;;4954529;28;20047;-82
2022/01/17 01:54:55;;;;;;;1.30;0.40;;;20.00;46.50;;;;;;4953975;28;20569;-82
2022/01/17 01:57:21;;;;;;;2.22;0.60;;;20.00;46.50;;;;;;4954680;28;20050;-83
2022/01/17 01:59:46;;;;;;;1.75;0.65;;;20.00;46.50;;;;;;4953713;28;20549;-82
2022/01/17 02:02:13;;;;;;;1.35;0.40;;;20.00;46.50;;;;;;4953749;28;20579;-82
2022/01/17 02:04:39;;;;;;;1.30;0.50;;;20.00;46.50;;;;;;4954367;28;20047;-83
2022/01/17 02:07:04;;;;;;;1.45;0.55;;;20.00;46.50;;;;;;4969551;28;20082;-82
2022/01/17 02:09:31;;;;;;;1.67;0.60;;;20.00;46.50;;;;;;4953689;28;20043;-83
2022/01/17 02:11:56;;;;;;;0.68;0.40;;;20.00;46.50;;;;;;4953900;28;20062;-83
2022/01/17 02:14:22;;;;;;;1.02;0.45;;;20.00;46.50;;;;;;4953406;28;20053;-83
2022/01/17 02:16:50;;;;;;;1.20;0.40;;;20.30;46.80;;;;;;4953548;28;20054;-83
2022/01/17 02:19:20;;;;;;;1.70;0.50;;;19.90;46.50;;;;;;4954094;28;20042;-83
2022/01/17 02:21:47;;;;;;;0.82;0.32;;;20.00;46.50;;;;;;4953489;28;20137;-83
2022/01/17 02:24:20;;;;;;;0.60;0.30;;;20.00;46.60;;;;;;4953940;28;20050;-83
2022/01/17 02:26:47;;;;;;;0.98;0.40;;;20.00;46.50;;;;;;4954127;28;20046;-82
2022/01/17 02:29:13;;;;;;;0.93;0.30;;;20.00;46.50;;;;;;4952803;28;20517;-82
2022/01/17 02:31:38;;;;;;;0.95;0.40;;;20.00;46.50;;;;;;4953468;28;20082;-82
2022/01/17 02:34:04;;;;;;;1.77;0.65;;;20.00;46.50;;;;;;4952928;28;20399;-83
2022/01/17 02:36:30;;;;;;;1.65;0.55;;;20.10;46.60;;;;;;4953043;28;20097;-83
2022/01/17 02:38:56;;;;;;;1.10;0.40;;;20.10;46.60;;;;;;4951307;28;20553;-83
2022/01/17 02:41:21;;;;;;;3.33;0.80;;;20.10;46.60;;;;;;4953353;28;20118;-83
2022/01/17 02:43:47;;;;;;;1.50;0.40;;;20.10;46.60;;;;;;4953157;28;20039;-83
2022/01/17 02:48:40;;;;;;;1.52;0.43;;;20.10;46.60;;;;;;4949657;28;20121;-83
2022/01/17 02:51:06;;;;;;;1.65;0.40;;;20.10;46.60;;;;;;4952829;28;20043;-83
2022/01/17 02:53:31;;;;;;;2.13;0.40;;;20.10;46.60;;;;;;4952641;28;20047;-83
2022/01/17 02:56:02;;;;;;;1.83;0.40;;;20.10;46.60;;;;;;4953059;28;20054;-83
2022/01/17 02:58:28;;;;;;;1.10;0.50;;;20.10;46.60;;;;;;4953364;28;20047;-83
2022/01/17 03:00:55;;;;;;;2.35;0.40;;;20.10;46.60;;;;;;4936327;28;20122;-83
2022/01/17 03:03:28;;;;;;;1.48;0.38;;;20.10;46.50;;;;;;4952765;28;20047;-83
2022/01/17 03:05:55;;;;;;;1.35;0.40;;;20.10;46.60;;;;;;4952937;28;20097;-83
2022/01/17 03:08:21;;;;;;;1.83;0.40;;;20.10;46.60;;;;;;4953146;28;20447;-83
2022/01/17 03:10:47;;;;;;;1.17;0.47;;;20.10;46.50;;;;;;4952782;28;20038;-83
2022/01/17 03:13:15;;;;;;;1.20;0.40;;;20.10;46.50;;;;;;4953217;28;20097;-83
2022/01/17 03:15:40;;;;;;;1.15;0.52;;;20.10;46.60;;;;;;4953448;28;20692;-83
2022/01/17 03:18:06;;;;;;;0.80;0.40;;;20.10;46.50;;;;;;4952655;28;20074;-83
2022/01/17 03:20:34;;;;;;;1.55;0.50;;;20.10;46.50;;;;;;4953332;28;20665;-82
2022/01/17 03:22:59;;;;;;;1.88;0.40;;;20.10;46.50;;;;;;4953247;28;20541;-83
2022/01/17 03:25:25;;;;;;;1.05;0.30;;;20.10;46.50;;;;;;4952020;28;20070;-83
2022/01/17 03:27:51;;;;;;;1.40;0.32;;;20.10;46.50;;;;;;4953063;28;20902;-83
2022/01/17 03:30:16;;;;;;;0.85;0.40;;;20.10;46.50;;;;;;4952528;28;20051;-83
2022/01/17 03:32:42;;;;;;;1.33;0.43;;;20.10;46.50;;;;;;4932283;29;20058;-82
2022/01/17 03:35:08;;;;;;;1.27;0.38;;;20.10;46.50;;;;;;4914811;29;20131;-82
2022/01/17 03:37:34;;;;;;;1.20;0.30;;;20.10;46.60;;;;;;4914392;29;20416;-82
2022/01/17 03:39:59;;;;;;;1.25;0.30;;;20.10;46.50;;;;;;4914004;29;20056;-82
2022/01/17 03:42:25;;;;;;;0.70;0.30;;;20.20;46.60;;;;;;4914884;29;20512;-82
2022/01/17 03:44:51;;;;;;;1.33;0.30;;;20.10;46.50;;;;;;4914087;29;20050;-82
2022/01/17 03:47:16;;;;;;;0.50;0.20;;;20.10;46.50;;;;;;4914588;29;20138;-82
2022/01/17 03:49:42;;;;;;;0.70;0.30;;;20.10;46.50;;;;;;4914600;29;20504;-82
2022/01/17 03:52:07;;;;;;;1.67;0.30;;;20.10;46.50;;;;;;4914153;29;20048;-82
2022/01/17 03:54:33;;;;;;;1.50;0.43;;;20.40;46.70;;;;;;4898375;29;20133;-82
2022/01/17 03:56:59;;;;;;;1.92;0.52;;;20.10;46.50;;;;;;4914434;29;20051;-82
2022/01/17 03:59:24;;;;;;;1.15;0.32;;;20.10;46.50;;;;;;4931311;28;20059;-82
2022/01/17 04:01:50;;;;;;;1.45;0.40;;;20.10;46.50;;;;;;4952510;28;20043;-82
2022/01/17 04:04:15;;;;;;;0.93;0.20;;;20.10;46.50;;;;;;4955021;28;20081;-82
2022/01/17 04:06:41;;;;;;;1.40;0.45;;;20.10;46.50;;;;;;4955916;28;20045;-82
2022/01/17 04:09:06;;;;;;;1.05;0.30;;;20.20;46.50;;;;;;4955598;28;20513;-83
2022/01/17 04:11:32;;;;;;;1.55;0.30;;;20.20;46.60;;;;;;4956019;28;20052;-82
2022/01/17 04:13:58;;;;;;;0.43;0.13;;;20.10;46.50;;;;;;4955484;28;20070;-82
2022/01/17 04:16:23;;;;;;;0.47;0.28;;;20.20;46.60;;;;;;4955838;28;20050;-82
2022/01/17 04:18:49;;;;;;;0.63;0.20;;;20.10;46.50;;;;;;4956538;28;20430;-82
2022/01/17 04:21:14;;;;;;;1.67;0.35;;;20.20;46.50;;;;;;4955314;28;20054;-83
2022/01/17 04:23:40;;;;;;;1.50;0.30;;;20.20;46.60;;;;;;4955686;28;20039;-82
2022/01/17 04:26:05;;;;;;;2.35;0.52;;;20.20;46.50;;;;;;4956087;28;20116;-82
2022/01/17 04:28:31;;;;;;;1.60;0.40;;;20.20;46.50;;;;;;4955409;28;20047;-82
2022/01/17 04:30:57;;;;;;;1.42;0.35;;;20.20;46.50;;;;;;4955812;28;20137;-82
2022/01/17 04:33:22;;;;;;;1.52;0.30;;;20.20;46.50;;;;;;4955754;28;20078;-82
2022/01/17 04:35:48;;;;;;;1.13;0.30;;;20.20;46.50;;;;;;4955101;28;20058;-82
2022/01/17 04:38:16;;;;;;;0.98;0.40;;;20.20;46.50;;;;;;4955445;28;20197;-83
2022/01/17 04:40:45;;;;;;;1.05;0.30;;;20.20;46.50;;;;;;4971198;28;20639;-82
2022/01/17 04:43:20;;;;;;;1.10;0.30;;;20.20;46.50;;;;;;4971262;28;20097;-82
2022/01/17 04:45:47;;;;;;;1.45;0.43;;;20.20;46.50;;;;;;4955759;28;20054;-82
2022/01/17 04:48:12;;;;;;;1.58;0.30;;;20.20;46.50;;;;;;4967416;28;20582;-82
2022/01/17 04:50:38;;;;;;;1.70;0.38;;;20.20;46.50;;;;;;4942803;28;20138;-82
2022/01/17 04:53:04;;;;;;;0.65;0.25;;;20.20;46.50;;;;;;4955224;28;20054;-82
2022/01/17 04:55:29;;;;;;;1.55;0.30;;;20.20;46.50;;;;;;4954740;28;20047;-82
2022/01/17 04:57:58;;;;;;;1.35;0.30;;;20.20;46.50;;;;;;4955122;28;20065;-82
2022/01/17 05:00:25;;;;;;;1.38;0.30;;;20.20;46.50;;;;;;4955359;28;20081;-82
2022/01/17 05:02:50;;;;;;;1.05;0.40;;;20.20;46.50;;;;;;4971212;28;20515;-82
2022/01/17 05:05:16;;;;;;;0.75;0.20;;;20.20;46.50;;;;;;4954694;28;20046;-82
2022/01/17 05:07:42;;;;;;;1.50;0.30;;;20.20;46.50;;;;;;4954932;28;20101;-82
2022/01/17 05:10:10;;;;;;;1.90;0.30;;;20.20;46.50;;;;;;4954247;28;20039;-82
2022/01/17 05:12:35;;;;;;;1.58;0.30;;;20.20;46.50;;;;;;4955036;28;20047;-81
2022/01/17 05:15:02;;;;;;;0.82;0.30;;;20.20;46.50;;;;;;4954385;28;20054;-82
2022/01/17 05:20:00;;;;;;;0.82;0.30;;;20.30;46.60;;;;;;4955021;28;20121;-82
2022/01/17 05:22:31;;;;;;;0.70;0.20;;;20.30;46.60;;;;;;4954893;28;20051;-82
2022/01/17 05:24:58;;;;;;;1.52;0.20;;;20.30;46.60;;;;;;4954049;28;20137;-81
2022/01/17 05:27:23;;;;;;;0.93;0.20;;;20.40;46.60;;;;;;4954761;28;20894;-82
2022/01/17 05:29:49;;;;;;;0.65;0.20;;;20.30;47.30;;;;;;4954314;28;20082;-81
2022/01/17 05:32:15;;;;;;;0.90;0.20;;;20.30;46.60;;;;;;4954433;28;20081;-82
2022/01/17 05:34:41;;;;;;;0.85;0.30;;;20.40;46.70;;;;;;4954570;28;20046;-82
2022/01/17 05:37:07;;;;;;;1.02;0.30;;;20.40;46.60;;;;;;4953664;28;20791;-82
2022/01/17 05:39:33;;;;;;;1.27;0.30;;;20.40;46.60;;;;;;4954234;28;20066;-81
2022/01/17 05:41:59;;;;;;;1.15;0.30;;;20.40;46.60;;;;;;4954502;28;20097;-82
2022/01/17 05:44:25;;;;;;;1.73;0.30;;;20.50;46.70;;;;;;4953852;28;20047;-82
2022/01/17 05:46:50;;;;;;;0.93;0.30;;;20.50;46.60;;;;;;4954263;28;20058;-81
2022/01/17 05:49:16;;;;;;;1.83;0.40;;;20.50;46.60;;;;;;4971553;28;20406;-81
2022/01/17 05:51:41;;;;;;;1.52;0.40;;;20.50;46.60;;;;;;4954484;28;20058;-82
2022/01/17 05:54:07;;;;;;;1.02;0.28;;;20.70;46.70;;;;;;4954034;28;20482;-82
2022/01/17 05:56:33;;;;;;;1.13;0.30;;;20.60;46.70;;;;;;4954304;28;20067;-82
2022/01/17 05:58:58;;;;;;;1.00;0.20;;;20.60;46.60;;;;;;4954051;28;20054;-82
2022/01/17 06:01:24;;;;;;;0.68;0.28;;;20.60;46.50;;;;;;4933682;29;20060;-82
2022/01/17 06:03:50;;;;;;;1.83;0.38;;;20.60;46.50;;;;;;4947842;29;20039;-82
2022/01/17 06:06:15;;;;;;;0.90;0.30;;;20.60;46.50;;;;;;4947174;29;20111;-82
2022/01/17 06:08:42;;;;;;;0.77;0.17;;;20.60;46.50;;;;;;4915681;29;20063;-82
2022/01/17 06:11:07;;;;;;;0.52;0.20;;;20.70;46.50;;;;;;4915954;29;20081;-82
2022/01/17 06:13:33;;;;;;;0.98;0.20;;;20.60;46.50;;;;;;4915105;29;20535;-81
2022/01/17 06:15:58;;;;;;;0.88;0.20;;;21.30;46.80;;;;;;4947447;29;20040;-82
2022/01/17 06:18:24;;;;;;;0.82;0.30;;;20.70;46.50;;;;;;4915885;29;20154;-82
2022/01/17 06:20:50;;;;;;;0.90;0.20;;;20.70;46.50;;;;;;4946682;29;20448;-82
2022/01/17 06:23:15;;;;;;;0.93;0.20;;;20.70;46.40;;;;;;4915625;29;20419;-82
2022/01/17 06:25:41;;;;;;;0.82;0.20;;;20.90;46.50;;;;;;4915710;29;20051;-82
2022/01/17 06:28:06;;;;;;;0.77;0.20;;;20.80;46.50;;;;;;4914472;29;20051;-82
2022/01/17 06:30:32;;;;;;;1.05;0.20;;;20.80;46.40;;;;;;4942932;29;20047;-82
2022/01/17 06:32:58;;;;;;;1.00;0.30;;;20.80;46.50;;;;;;4938533;29;20153;-83
2022/01/17 06:35:23;;;;;;;1.60;0.20;;;20.80;46.40;;;;;;4923405;29;20055;-82
2022/01/17 06:37:51;;;;;;;1.58;0.30;;;20.80;46.40;;;;;;4930995;29;20534;-81
2022/01/17 06:40:16;;;;;;;0.95;0.25;;;21.80;46.90;;;;;;4916066;29;20139;-81
2022/01/17 06:42:42;;;;;;;1.85;0.35;;;20.80;46.40;;;;;;4896261;29;20130;-81
2022/01/17 06:45:08;;;;;;;0.95;0.20;;;20.80;46.40;;;;;;4928430;29;20059;-82
2022/01/17 06:47:35;;;;;;;1.27;0.20;;;20.90;46.40;;;;;;4907747;29;20793;-82
2022/01/17 06:50:01;;;;;;;0.70;0.20;;;20.80;46.30;;;;;;4929134;29;20042;-83
2022/01/17 06:52:26;;;;;;;1.25;0.30;;;20.80;46.30;;;;;;4939773;28;20158;-83
2022/01/17 06:54:55;;;;;;;1.13;0.30;;;20.90;46.30;;;;;;4927827;28;20522;-83
2022/01/17 06:57:20;;;;;;;1.27;0.40;;;20.90;46.30;;;;;;4937086;28;20050;-83
2022/01/17 06:59:46;;;;;;;1.02;0.30;;;20.90;46.30;;;;;;4917003;29;20051;-83
2022/01/17 07:02:11;;;;;;;0.95;0.30;;;20.90;46.30;;;;;;4939353;29;20572;-83
2022/01/17 07:04:37;;;;;;;1.30;0.20;;;21.70;46.70;;;;;;4931734;29;20055;-85
2022/01/17 07:07:03;;;;;;;1.45;0.38;;;20.90;46.20;;;;;;4930460;29;20107;-83
2022/01/17 07:09:29;;;;;;;0.90;0.30;;;20.90;46.20;;;;;;4905051;29;20068;-83
2022/01/17 07:11:58;;;;;;;0.77;0.30;;;20.90;46.20;;;;;;4896066;29;20413;-83
2022/01/17 07:14:25;;;;;;;1.02;0.30;;;20.90;46.20;;;;;;4895988;29;20146;-83
2022/01/17 07:16:51;;;;;;;2.80;0.45;;;20.90;46.20;;;;;;4894833;29;20076;-82
2022/01/17 07:19:20;;;;;;;1.02;0.32;;;20.90;46.20;;;;;;4912795;29;20143;-83
2022/01/17 07:21:45;;;;;;;3.30;0.50;;;20.80;46.10;;;;;;4896053;29;20485;-83
2022/01/17 07:24:11;;;;;;;2.00;0.45;;;20.90;46.20;;;;;;4895103;29;20658;-83
2022/01/17 07:26:36;;;;;;;2.65;0.60;;;20.80;46.10;;;;;;4895670;29;20052;-84
2022/01/17 07:29:05;;;;;;;2.83;0.63;;;20.90;46.20;;;;;;4904610;29;20062;-83
2022/01/17 07:31:32;;;;;;;2.50;0.60;;;20.90;46.20;;;;;;4913385;29;20054;-83
2022/01/17 07:33:58;;;;;;;0.93;0.43;;;20.80;46.10;;;;;;4912463;29;20040;-83
2022/01/17 07:36:23;;;;;;;2.28;0.50;;;20.90;46.20;;;;;;4903491;29;20530;-83
2022/01/17 07:38:49;;;;;;;4.72;0.70;;;20.90;46.20;;;;;;4914365;29;20054;-83
2022/01/17 07:41:14;;;;;;;3.28;0.63;;;20.80;46.10;;;;;;4915843;29;20106;-83
2022/01/17 07:43:41;;;;;;;2.28;0.55;;;20.80;46.10;;;;;;4914416;29;20047;-83
2022/01/17 07:46:17;;;;;;;2.42;0.50;;;20.80;46.10;;;;;;4907711;29;20567;-83
2022/01/17 07:51:11;;;;;;;2.90;0.60;;;20.80;46.10;;;;;;4877834;29;20140;-83
2022/01/17 07:53:37;;;;;;;3.35;0.70;;;21.50;47.10;;;;;;4894976;29;20143;-83
2022/01/17 07:56:03;;;;;;;2.95;0.75;;;20.80;46.10;;;;;;4899300;29;20048;-83
2022/01/17 07:58:28;;;;;;;3.92;0.70;;;20.80;46.00;;;;;;4906467;29;20058;-83
2022/01/17 08:00:56;;;;;;;3.33;0.52;;;20.80;46.00;;;;;;4917961;29;20087;-83
2022/01/17 08:03:21;;;;;;;2.58;0.60;;;20.80;46.00;;;;;;4902618;29;20052;-83
2022/01/17 08:05:47;;;;;;;2.33;0.50;;;20.80;46.00;;;;;;4899834;29;20559;-84
2022/01/17 08:08:12;;;;;;;2.40;0.80;;;20.80;46.00;;;;;;4898807;29;20048;-83
2022/01/17 08:10:38;;;;;;;4.07;0.70;;;20.80;46.00;;;;;;4901477;29;20063;-82
2022/01/17 08:13:04;;;;;;;1.77;0.50;;;20.80;45.90;;;;;;4904594;29;20681;-86
2022/01/17 08:15:31;;;;;;;2.55;0.60;;;20.80;45.90;;;;;;4907291;29;20048;-84
2022/01/17 08:17:56;;;;;;;1.58;0.55;;;20.80;46.10;;;;;;4913456;29;20056;-88
2022/01/17 08:20:22;;;;;;;2.15;0.60;;;20.70;46.10;;;;;;4915049;29;20047;-86
2022/01/17 08:22:48;;;;;;;2.92;0.90;;;20.80;46.20;;;;;;4921794;29;20470;-86
2022/01/17 08:25:14;;;;;;;3.40;0.95;;;20.70;46.10;;;;;;4917219;29;20039;-86
2022/01/17 08:27:40;;;;;;;2.58;0.75;;;20.70;46.10;;;;;;4915722;29;20055;-86
2022/01/17 08:30:06;;;;;;;3.80;1.10;;;20.80;46.20;;;;;;4916608;29;20119;-86
2022/01/17 08:32:32;;;;;;;3.22;0.80;;;20.70;46.20;;;;;;4918448;29;20499;-84
2022/01/17 08:34:58;;;;;;;3.72;1.02;;;20.70;46.20;;;;;;4911874;29;20043;-85
2022/01/17 08:37:25;;;;;;;4.53;1.05;;;20.70;46.10;;;;;;4912031;29;20142;-85
2022/01/17 08:39:50;;;;;;;5.13;1.00;;;20.70;46.20;;;;;;4900715;29;20497;-86
2022/01/17 08:42:16;;;;;;;5.03;0.90;;;20.70;46.20;;;;;;4916942;29;20079;-85
2022/01/17 08:44:48;;;;;;;2.90;0.68;;;20.70;46.20;;;;;;4914783;29;21587;-83
2022/01/17 08:47:14;;;;;;;3.53;0.95;;;20.80;46.30;;;;;;4910274;29;20127;-85
2022/01/17 08:49:40;;;;;;;4.68;0.88;;;20.70;46.30;;;;;;4916703;29;20036;-84
2022/01/17 08:52:06;;;;;;;4.80;0.93;;;20.80;46.40;;;;;;4923864;29;20103;-85
2022/01/17 08:54:31;;;;;;;4.60;0.90;;;20.80;46.30;;;;;;4917975;29;20048;-82
2022/01/17 08:56:57;;;;;;;3.65;0.80;;;20.80;46.30;;;;;;4913777;29;20091;-83
2022/01/17 08:59:22;;;;;;;3.17;0.80;;;21.90;46.90;;;;;;4913700;29;20058;-83
2022/01/17 09:01:48;;;;;;;4.53;0.85;;;20.80;46.30;;;;;;4909760;29;20044;-82
2022/01/17 09:04:14;;;;;;;4.10;0.70;;;20.80;46.30;;;;;;4900766;29;20070;-83
2022/01/17 09:06:40;;;;;;;3.17;0.63;;;20.80;46.30;;;;;;4914705;29;20488;-83
2022/01/17 09:09:05;;;;;;;3.92;0.88;;;20.80;46.30;;;;;;4915562;29;20048;-83
2022/01/17 09:11:31;;;;;;;3.40;0.70;;;20.80;46.30;;;;;;4916727;29;20583;-83
2022/01/17 09:13:56;;;;;;;2.85;0.73;;;20.80;46.30;;;;;;4915994;29;20071;-84
2022/01/17 09:16:22;;;;;;;3.13;0.75;;;20.80;46.20;;;;;;4933486;29;20844;-83
2022/01/17 09:18:47;;;;;;;3.45;0.60;;;20.80;46.20;;;;;;4935644;29;20062;-83
2022/01/17 09:21:14;;;;;;;2.60;0.70;;;20.80;46.20;;;;;;4935859;29;20043;-84
2022/01/17 09:23:39;;;;;;;3.63;0.70;;;21.70;46.70;;;;;;4934851;29;20055;-84
2022/01/17 09:26:05;;;;;;;2.63;0.40;;;20.80;46.20;;;;;;4935468;29;20044;-84
2022/01/17 09:28:31;;;;;;;3.10;0.80;;;20.80;46.10;;;;;;4937128;29;20063;-84
2022/01/17 09:30:59;;;;;;;2.90;0.95;;;20.80;46.10;;;;;;4934668;29;20039;-83
2022/01/17 09:33:24;;;;;;;2.53;0.68;;;20.80;46.10;;;;;;4917219;28;20055;-84
2022/01/17 09:35:50;;;;;;;2.13;0.60;;;22.10;46.80;;;;;;4923521;29;20401;-83
2022/01/17 09:38:15;;;;;;;3.90;1.20;;;20.80;46.10;;;;;;4908355;29;20052;-87
2022/01/17 09:40:41;;;;;;;2.53;0.68;;;20.80;45.90;;;;;;4945319;28;20658;-83
2022/01/17 09:43:06;;;;;;;3.42;0.80;;;20.80;45.90;;;;;;4928046;29;20040;-83
2022/01/17 09:45:32;;;;;;;3.45;1.00;;;20.70;45.90;;;;;;4899609;29;20519;-83
2022/01/17 09:48:00;;;;;;;4.28;0.70;;;20.70;46.10;;;;;;4938825;29;20039;-82
2022/01/17 09:50:33;;;;;;;4.60;0.90;;;20.70;46.10;;;;;;4927186;29;20099;-81
2022/01/17 09:53:00;;;;;;;5.00;1.05;;;20.70;46.10;;;;;;4935504;29;20102;-82
2022/01/17 09:55:26;;;;;;;4.65;1.00;;;20.70;46.10;;;;;;4931162;29;20087;-83
2022/01/17 09:57:54;;;;;;;5.55;1.10;;;20.80;46.30;;;;;;4939977;29;20051;-81
2022/01/17 10:00:24;;;;;;;6.40;0.80;;;20.70;46.30;;;;;;4933625;29;20519;-82
2022/01/17 10:02:50;;;;;;;6.00;1.15;;;20.60;46.40;;;;;;4938735;29;20440;-82
2022/01/17 10:05:16;;;;;;;2.63;0.68;;;20.60;46.40;;;;;;4930602;29;20074;-81
2022/01/17 10:07:55;;;;;;;5.38;1.05;;;20.60;46.50;;;;;;4930457;29;20504;-81
2022/01/17 10:10:43;;;;;;;4.78;1.00;;;20.50;46.50;;;;;;4946602;28;20424;-81
2022/01/17 10:13:14;;;;;;;4.03;0.65;;;20.60;46.70;;;;;;4932688;29;20107;-81
2022/01/17 10:15:58;;;;;;;2.90;0.70;;;20.50;46.80;;;;;;4966752;28;20039;-82
2022/01/17 10:18:26;;;;;;;5.53;1.20;;;20.50;46.90;;;;;;4958052;28;20059;-82
2022/01/17 10:20:56;;;;;;;3.83;0.82;;;20.50;47.10;;;;;;4915528;29;20048;-81
2022/01/17 10:23:42;;;;;;;4.25;0.98;;;20.40;47.10;;;;;;4930772;28;20122;-81
2022/01/17 10:26:20;;;;;;;4.57;0.98;;;20.40;47.20;;;;;;4933633;29;20138;-81
2022/01/17 10:37:00;;;;;;;4.22;1.00;;;21.00;48.00;;;;;;4934533;28;20153;-81
2022/01/17 10:39:26;;;;;;;5.35;0.90;;;20.20;47.70;;;;;;4951189;28;20150;-84
2022/01/17 10:41:51;;;;;;;4.03;0.80;;;20.30;47.60;;;;;;4948278;28;20055;-83
2022/01/17 10:44:34;;;;;;;2.65;0.80;;;20.30;47.50;;;;;;4949112;29;20047;-82
2022/01/17 10:47:26;;;;;;;4.60;0.73;;;20.30;47.50;;;;;;4893715;29;20060;-82
2022/01/17 10:49:56;;;;;;;4.07;0.90;;;20.30;47.40;;;;;;4896370;29;20048;-83
2022/01/17 10:52:37;;;;;;;4.13;0.90;;;20.30;47.30;;;;;;4895772;29;20087;-83
2022/01/17 10:55:09;;;;;;;2.83;0.70;;;20.30;47.30;;;;;;4895404;29;20084;-82
2022/01/17 10:57:42;;;;;;;4.07;0.85;;;20.30;47.20;;;;;;4896058;29;20055;-83
2022/01/17 11:00:18;;;;;;;3.90;1.02;;;20.30;47.20;;;;;;4896265;29;20040;-83
2022/01/17 11:02:50;;;;;;;3.15;0.80;;;20.30;47.20;;;;;;4890165;29;20107;-82
2022/01/17 11:05:17;;;;;;;;;;;20.80;47.40;;;;;;4912872;29;20102;-83
2022/01/17 11:07:44;;;;;;;4.68;0.90;;;21.80;47.90;;;;;;4917136;29;19926;-83
2022/01/17 11:10:28;;;;;;;4.57;0.90;;;20.40;47.20;;;;;;4920295;29;20051;-82
2022/01/17 11:12:55;;;;;;;5.03;1.05;;;20.40;47.20;;;;;;4914452;29;20062;-83
2022/01/17 11:15:21;;;;;;;4.53;0.80;;;20.40;47.10;;;;;;4912891;29;20040;-83
2022/01/17 11:17:50;;;;;;;2.80;0.77;;;20.50;47.10;;;;;;4913654;29;20082;-82
2022/01/17 11:20:20;;;;;;;3.03;1.02;;;20.40;47.10;;;;;;4913441;29;20507;-83
2022/01/17 11:22:46;;;;;;;2.63;0.70;;;20.40;47.00;;;;;;4910558;29;20064;-83
2022/01/17 11:25:25;;;;;;;3.13;0.60;;;20.40;47.00;;;;;;4895887;29;20051;-83
2022/01/17 11:27:51;;;;;;;4.40;0.80;;;20.50;47.10;;;;;;4900346;29;20499;-83
2022/01/17 11:30:17;;;;;;;3.80;0.85;;;20.50;47.00;;;;;;4895236;29;20048;-83
2022/01/17 11:32:47;;;;;;;5.55;0.80;;;20.50;47.00;;;;;;4895862;29;20070;-82
2022/01/17 11:35:13;;;;;;;2.47;0.63;;;20.50;47.00;;;;;;4895472;29;20056;-83
2022/01/17 11:37:42;;;;;;;3.13;0.73;;;20.50;46.90;;;;;;4896241;29;20400;-83
2022/01/17 11:40:08;;;;;;;2.95;0.70;;;20.50;46.90;;;;;;4911344;29;20044;-83
2022/01/17 11:42:36;;;;;;;3.47;0.70;;;20.50;46.90;;;;;;4898513;29;20052;-82
2022/01/17 11:45:25;;;;;;;3.20;0.70;;;19.30;46.20;;;;;;4914257;29;20415;-84
2022/01/17 11:47:54;;;;;;;3.22;0.70;;;20.50;46.90;;;;;;4932585;28;20050;-83
2022/01/17 11:50:30;;;;;;;3.28;0.80;;;20.90;47.00;;;;;;4952251;28;20490;-83
2022/01/17 11:53:00;;;;;;;3.95;0.75;;;20.50;46.80;;;;;;4952676;28;20137;-83
2022/01/17 11:55:44;;;;;;;3.97;0.70;;;20.50;46.80;;;;;;4952618;28;20046;-83
2022/01/17 11:58:28;;;;;;;4.45;0.90;;;20.50;46.80;;;;;;4911321;28;20071;-82
2022/01/17 12:00:57;;;;;;;3.65;0.68;;;20.50;46.80;;;;;;4940967;28;20844;-82
2022/01/17 12:03:23;;;;;;;3.50;0.90;;;20.50;46.80;;;;;;4951676;28;20051;-82
2022/01/17 12:05:49;;;;;;;3.22;0.73;;;20.50;46.70;;;;;;4951494;28;20089;-82
2022/01/17 12:08:16;;;;;;;2.42;0.70;;;20.50;46.70;;;;;;4951185;28;20055;-81
2022/01/17 12:10:50;;;;;;;3.22;0.70;;;20.50;46.70;;;;;;4950946;28;20059;-81
2022/01/17 12:13:18;;;;;;;3.33;0.88;;;20.60;46.70;;;;;;4933036;29;20647;-81
2022/01/17 12:16:06;;;;;;;4.05;0.80;;;20.60;46.70;;;;;;4933299;29;20059;-80
2022/01/17 12:18:40;;;;;;;2.88;0.90;;;20.60;46.70;;;;;;4932317;29;20061;-81
2022/01/17 12:21:24;;;;;;;2.78;0.50;;;21.40;47.10;;;;;;4932941;28;20131;-82
2022/01/17 12:23:51;;;;;;;7.45;1.50;;;20.60;46.70;;;;;;4950186;28;20035;-82
2022/01/17 12:26:27;;;;;;;7.03;1.75;;;21.70;47.40;;;;;;4955287;28;20062;-80
2022/01/17 12:28:54;;;;;;;6.65;1.70;;;20.80;47.30;;;;;;4955062;28;20047;-81
2022/01/17 12:31:39;;;;;;;7.70;1.67;;;21.00;47.60;;;;;;4952827;28;20047;-80
2022/01/17 12:34:24;;;;;;;6.40;1.58;;;20.50;47.50;;;;;;4944828;28;20067;-81
2022/01/17 12:36:54;;;;;;;5.68;1.15;;;20.40;47.60;;;;;;4935395;29;20085;-80
2022/01/17 12:39:25;;;;;;;7.40;1.45;;;20.40;47.70;;;;;;4934999;28;20047;-80
2022/01/17 12:41:52;;;;;;;7.65;1.77;;;20.30;47.70;;;;;;4950774;28;20142;-81
2022/01/17 12:44:25;;;;;;;5.28;1.35;;;20.40;47.90;;;;;;4951665;28;20047;-81
2022/01/17 12:46:53;;;;;;;6.68;1.77;;;20.30;47.80;;;;;;4970020;28;20096;-81
2022/01/17 12:49:20;;;;;;;7.45;1.60;;;20.50;48.00;;;;;;4944380;28;20054;-81
2022/01/17 12:51:56;;;;;;;6.25;1.50;;;20.70;48.10;;;;;;4970754;28;20055;-81
2022/01/17 12:54:26;;;;;;;7.03;1.73;;;21.90;48.80;;;;;;4957126;28;20758;-81
2022/01/17 12:56:54;;;;;;;7.22;1.17;;;20.30;47.90;;;;;;4954251;28;20047;-81
2022/01/17 12:59:19;;;;;;;7.68;1.90;;;20.30;47.90;;;;;;4954501;28;20050;-79
2022/01/17 13:01:53;;;;;;;7.20;1.30;;;20.30;47.90;;;;;;4953507;28;20491;-80
2022/01/17 13:04:19;;;;;;;5.38;0.95;;;20.30;47.90;;;;;;4954329;28;20054;-81
2022/01/17 13:06:46;;;;;;;9.30;1.10;;;20.30;47.90;;;;;;4934937;28;20399;-80
2022/01/17 13:09:14;;;;;;;6.30;1.48;;;20.30;47.90;;;;;;4933414;29;20403;-87
2022/01/17 13:12:00;;;;;;;5.75;1.40;;;20.30;47.90;;;;;;4945178;28;20078;-83
2022/01/17 13:14:25;;;;;;;5.85;1.13;;;20.30;47.90;;;;;;4949276;28;20065;-83